ADDS METAR Data INFO
IDs: Format: Raw Decoded Include TAF

Data at: 0221 UTC 18 Jan 2018

KTOC 180215Z AUTO 34005KT 10SM CLR M02/M15 A3034 RMK AO2 T10201152
KTOC 180155Z AUTO 02006KT 10SM CLR M02/M15 A3034 RMK AO2 T10171155
KTOC 180135Z AUTO 02007G15KT 10SM CLR M01/M16 A3034 RMK AO2 T10141158
KTOC 180115Z AUTO 02012G18KT 10SM CLR M01/M16 A3033 RMK AO2 T10101162
KTOC 180055Z AUTO 01014G22KT 10SM CLR M01/M16 A3033 RMK AO2 T10061165
KTOC 180035Z AUTO 35016G22KT 10SM CLR 00/M17 A3031 RMK AO2 T10031167
KTOC 180015Z AUTO 35012G19KT 10SM CLR 00/M17 A3031 RMK AO2 T10011168
KTOC 172355Z AUTO 35011G18KT 10SM CLR 00/M16 A3030 RMK AO2 T00001158 10051 20000
KTOC 172335Z AUTO 34005G14KT 10SM CLR 00/M13 A3029 RMK AO2 T00001126
KTOC 172315Z AUTO 32004KT 10SM CLR 00/M11 A3028 RMK AO2 T00001111
KTOC 172255Z AUTO 32006KT 10SM CLR 01/M11 A3027 RMK AO2 T00051109
KTOC 172235Z AUTO 31007KT 10SM CLR 01/M10 A3026 RMK AO2 T00111101
KTOC 172215Z AUTO 32007G16KT 290V350 10SM CLR 02/M10 A3025 RMK AO2 T00181096
KTOC 172155Z AUTO 34009G14KT 10SM CLR 03/M09 A3024 RMK AO2 T00291089
KTOC 172135Z AUTO 33007G14KT 10SM CLR 03/M09 A3023 RMK AO2 T00331086
KTOC 172115Z AUTO 33007G15KT 290V350 10SM SCT050 04/M09 A3022 RMK AO2 T00361086
KTOC 172055Z AUTO 34009KT 10SM SCT050 04/M08 A3022 RMK AO2 T00421082
KTOC 172035Z AUTO 32008G15KT 10SM SCT042 SCT050 04/M08 A3021 RMK AO2 T00441079
KTOC 172015Z AUTO 34009G15KT 10SM SCT040 SCT050 05/M08 A3020 RMK AO2 T00461077
KTOC 171955Z AUTO 34009KT 10SM BKN038 BKN050 04/M07 A3020 RMK AO2 T00441070
KTOC 171935Z AUTO 34006KT 10SM BKN036 BKN049 05/M05 A3020 RMK AO2 T00471050
KTOC 171915Z AUTO 32006KT 10SM BKN034 BKN049 05/M05 A3021 RMK AO2 T00451050
KTOC 171855Z AUTO 35008KT 10SM BKN032 OVC047 04/M05 A3021 RMK AO2 T00361049
KTOC 171835Z AUTO 34006KT 10SM SCT030 SCT035 OVC045 03/M05 A3021 RMK AO2 T00341049
KTOC 171815Z AUTO 24008KT 10SM OVC028 03/M05 A3022 RMK AO2 T00251049
KTOC 171755Z AUTO 26007KT 10SM OVC026 03/M04 A3023 RMK AO2 T00251043 10025 21005
KTOC 171735Z AUTO 26006KT 10SM OVC024 03/M04 A3024 RMK AO2 T00251044
KTOC 171715Z AUTO 25004KT 10SM OVC022 02/M04 A3025 RMK AO2 T00201040
KTOC 171655Z AUTO 23005KT 10SM OVC020 02/M04 A3026 RMK AO2 T00161038
KTOC 171635Z AUTO 23005KT 10SM OVC018 01/M04 A3025 RMK AO2 T00111039
KTOC 171615Z AUTO 22004KT 10SM OVC020 01/M04 A3026 RMK AO2 T00101043
KTOC 171555Z AUTO 22003KT 10SM OVC020 01/M04 A3025 RMK AO2 T00071039
KTOC 171535Z AUTO 24005KT 10SM OVC020 01/M04 A3025 RMK AO2 T00051038
KTOC 171515Z AUTO 24006KT 10SM OVC022 01/M04 A3025 RMK AO2 T00061038
KTOC 171455Z AUTO 27005KT 10SM OVC020 00/M04 A3024 RMK AO2 T00001043
KTOC 171435Z AUTO 25005KT 10SM OVC020 00/M04 A3024 RMK AO2 T00001039
KTOC 171415Z AUTO 26003KT 10SM OVC020 00/M04 A3024 RMK AO2 T00001039
KTOC 171355Z AUTO 25005KT 10SM OVC020 00/M04 A3024 RMK AO2 T10011036
KTOC 171335Z AUTO 24005KT 10SM OVC022 00/M03 A3023 RMK AO2 T10021033
KTOC 171315Z AUTO 24006KT 10SM OVC020 00/M03 A3023 RMK AO2 T10031033
KTOC 171255Z AUTO 26008KT 10SM OVC018 00/M03 A3023 RMK AO2 T10031029
KTOC 171235Z AUTO 27006KT 7SM -SN BKN018 OVC026 00/M02 A3023 RMK AO2 T10011020
KTOC 171215Z AUTO 25007KT 5SM -SN BKN020 OVC026 00/M01 A3023 RMK AO2 T00001015
KTOC 171155Z AUTO 24005KT 7SM -SN SCT018 OVC026 00/M01 A3023 RMK AO2 T00001012 10045 20000
KTOC 171135Z AUTO 25006KT 4SM -SN SCT014 OVC018 00/M01 A3023 RMK AO2 T00001013
KTOC 171115Z AUTO 26005KT 3SM -SN SCT014 BKN019 OVC033 00/M01 A3024 RMK AO2 T00011013
KTOC 171055Z AUTO 00000KT 5SM UP OVC032 00/M01 A3025 RMK AO2 T00021014
KTOC 171035Z AUTO 25005KT 5SM UP BKN029 BKN050 OVC065 01/M01 A3025 RMK AO2 T00051013
KTOC 171015Z AUTO 26004KT 10SM -DZ OVC065 01/M01 A3025 RMK AO2 T00051012
KTOC 170955Z AUTO 26006KT 7SM -RA SCT023 SCT034 OVC065 01/M01 A3025 RMK AO2 T00051010
KTOC 170935Z AUTO 25006KT 7SM -SN OVC023 01/00 A3025 RMK AO2 T00061005
KTOC 170915Z AUTO 25006KT 4SM -SN BKN023 BKN032 OVC048 01/00 A3025 RMK AO2 T00061003
KTOC 170855Z AUTO 24007KT 3SM -SN BKN013 BKN025 OVC055 01/00 A3025 RMK AO2 T00081001
KTOC 170835Z AUTO 24004KT 2 1/2SM -SN BKN013 OVC019 01/00 A3025 RMK AO2 T00111002
KTOC 170815Z AUTO 27005KT 5SM -SN SCT014 BKN021 OVC055 02/M01 A3026 RMK AO2 T00181008
KTOC 170755Z AUTO 26007KT 10SM -SN BKN026 BKN047 OVC055 02/M01 A3026 RMK AO2 T00241012
KTOC 170735Z AUTO 27005KT 10SM UP SCT026 BKN047 OVC055 03/M01 A3026 RMK AO2 T00271015
KTOC 170715Z AUTO 26005KT 10SM OVC055 03/M01 A3027 RMK AO2 T00301006
KTOC 170655Z AUTO 26004KT 10SM -DZ OVC055 03/00 A3026 RMK AO2 T00300000
KTOC 170635Z AUTO 25007KT 10SM -RA OVC055 04/00 A3027 RMK AO2 T00350002
KTOC 170615Z AUTO 25005KT 10SM -RA SCT029 SCT040 OVC065 04/00 A3027 RMK AO2 T00410001
KTOC 170555Z AUTO 28003KT 10SM OVC065 05/00 A3027 RMK AO2 T00450000 10088 20045 401171030
KTOC 170535Z AUTO 28004KT 10SM OVC065 05/00 A3027 RMK AO2 T00491001
KTOC 170515Z AUTO 29004KT 10SM OVC065 05/00 A3028 RMK AO2 T00511001
KTOC 170455Z AUTO 27005KT 10SM SCT044 OVC065 06/00 A3028 RMK AO2 T00550000
KTOC 170435Z AUTO 26005KT 10SM OVC042 06/00 A3028 RMK AO2 T00570000
KTOC 170415Z AUTO 27003KT 10SM OVC038 06/01 A3030 RMK AO2 T00600010
KTOC 170355Z AUTO 27007KT 10SM OVC036 06/02 A3030 RMK AO2 T00620019
KTOC 170335Z AUTO 27006KT 10SM BKN034 OVC040 07/03 A3030 RMK AO2 T00650025
KTOC 170315Z AUTO 25005KT 10SM SCT032 OVC042 07/03 A3030 RMK AO2 T00670028
KTOC 170255Z AUTO 26005KT 10SM OVC044 07/03 A3030 RMK AO2 T00680030
KTOC 170235Z AUTO 26004KT 10SM BKN044 OVC065 07/03 A3030 RMK AO2 T00680030
KTOC 170215Z AUTO 29004KT 10SM OVC042 07/03 A3030 RMK AO2 T00700030
KTOC 170155Z AUTO 29007KT 10SM BKN042 BKN050 OVC075 07/03 A3030 RMK AO2 T00710030
KTOC 170135Z AUTO 28007KT 10SM SCT036 SCT046 OVC075 07/03 A3030 RMK AO2 T00740029
KTOC 170115Z AUTO 30004KT 10SM BKN044 BKN060 OVC075 08/02 A3030 RMK AO2 T00760024
KTOC 170055Z AUTO 31003KT 10SM SCT045 BKN060 BKN075 08/02 A3030 RMK AO2 T00770020
KTOC 170035Z AUTO 00000KT 10SM SCT045 OVC060 08/02 A3030 RMK AO2 T00800017
KTOC 170015Z AUTO 31005KT 10SM SCT043 SCT060 BKN090 08/01 A3030 RMK AO2 T00830013
KTOC 162355Z AUTO 30003KT 10SM SCT050 BKN100 BKN120 09/01 A3030 RMK AO2 T00890006 10117 20089
KTOC 162335Z AUTO 27004KT 10SM SCT060 SCT080 OVC090 10/00 A3030 RMK AO2 T00950002
KTOC 162315Z AUTO 28004KT 10SM SCT060 BKN080 OVC090 10/00 A3030 RMK AO2 T00970000
KTOC 162255Z AUTO 25003KT 10SM SCT070 OVC090 10/00 A3030 RMK AO2 T00980001
KTOC 162235Z AUTO 26003KT 10SM SCT070 OVC080 10/00 A3030 RMK AO2 T01000000
KTOC 162215Z AUTO 24005KT 10SM SCT049 OVC080 10/00 A3030 RMK AO2 T01010000
KTOC 162155Z AUTO 23008KT 10SM BKN049 BKN055 OVC090 10/00 A3030 RMK AO2 T01030000
KTOC 162135Z AUTO 24005KT 10SM SCT047 OVC065 11/00 A3030 RMK AO2 T01050000
KTOC 162115Z AUTO 22006KT 10SM BKN055 OVC100 11/00 A3031 RMK AO2 T01051002
KTOC 162055Z AUTO 23009G14KT 10SM SCT055 BKN110 11/00 A3031 RMK AO2 T01091001
KTOC 162035Z AUTO 24010G15KT 10SM SCT055 SCT100 11/00 A3031 RMK AO2 T01131004
KTOC 162015Z AUTO 23008KT 10SM BKN055 11/00 A3031 RMK AO2 T01141004
KTOC 161955Z AUTO 22006KT 10SM BKN055 11/M01 A3031 RMK AO2 T01111009
KTOC 161935Z AUTO 21006KT 180V240 10SM CLR 12/M01 A3032 RMK AO2 T01151009
KTOC 161915Z AUTO 24008KT 190V250 10SM CLR 11/M01 A3033 RMK AO2 T01131010
KTOC 161855Z AUTO 21006KT 10SM CLR 11/M01 A3033 RMK AO2 T01071014
KTOC 161835Z AUTO 24005KT 10SM CLR 11/M02 A3034 RMK AO2 T01081016
KTOC 161815Z AUTO 23008KT 180V240 10SM CLR 10/M02 A3035 RMK AO2 T01001021
KTOC 161755Z AUTO 23007KT 10SM CLR 10/M02 A3036 RMK AO2 T01001021 10101 21030
KTOC 161735Z AUTO 23006KT 10SM CLR 10/M02 A3036 RMK AO2 T00951023
KTOC 161715Z AUTO 21005KT 10SM CLR 10/M03 A3038 RMK AO2 T00971026
KTOC 161655Z AUTO 22006KT 10SM CLR 10/M02 A3039 RMK AO2 T01001025
KTOC 161635Z AUTO 24005KT 10SM CLR 09/M03 A3040 RMK AO2 T00891029
KTOC 161615Z AUTO 22005KT 10SM CLR 08/M03 A3041 RMK AO2 T00831032
KTOC 161555Z AUTO 24004KT 10SM CLR 08/M03 A3043 RMK AO2 T00821029
KTOC 161535Z AUTO 19003KT 10SM CLR 08/M03 A3043 RMK AO2 T00751030
KTOC 161515Z AUTO 22003KT 10SM CLR 07/M02 A3043 RMK AO2 T00691025
KTOC 161455Z AUTO 00000KT 10SM CLR 06/M01 A3043 RMK AO2 T00551014
KTOC 161435Z AUTO 00000KT 10SM CLR 03/M01 A3043 RMK AO2 T00311012